This is the latest recevied weather packets stored in our database for station/object IU0SZS-10. If no packets are shown the sender has not sent any weather packets the latest 10 day(s).
| Time | Temp. | Humidity | Pressure | Rain* | Wind** | Luminosity | Snow |
|---|---|---|---|---|---|---|---|
| 1777914931 | 15° C | 51% | 918.4 hPa | - | - | - | - |
| 1777914031 | 15° C | 50% | 918.4 hPa | - | - | - | - |
| 1777913131 | 15° C | 48% | 918.4 hPa | - | - | - | - |
| 1777912231 | 15° C | 47% | 918.5 hPa | - | - | - | - |
| 1777911331 | 15° C | 46% | 918.4 hPa | - | - | - | - |
| 1777910463 | 15.56° C | 43% | 918.6 hPa | - | - | - | - |
| 1777910430 | 15.56° C | 43% | 918.6 hPa | - | - | - | - |
| 1777909530 | 15.56° C | 42% | 918.6 hPa | - | - | - | - |
| 1777908630 | 16.11° C | 41% | 918.6 hPa | - | - | - | - |
| 1777907730 | 16.11° C | 39% | 918.7 hPa | - | - | - | - |
| 1777906830 | 16.67° C | 40% | 918.9 hPa | - | - | - | - |
| 1777905930 | 17.22° C | 39% | 918.6 hPa | - | - | - | - |
| 1777905029 | 17.22° C | 39% | 918.9 hPa | - | - | - | - |
| 1777904129 | 17.78° C | 39% | 918.9 hPa | - | - | - | - |
| 1777903229 | 17.78° C | 40% | 918.9 hPa | - | - | - | - |
| 1777902329 | 18.33° C | 37% | 918.9 hPa | - | - | - | - |
| 1777901462 | 17.22° C | 38% | 919.1 hPa | - | - | - | - |
| 1777901429 | 17.22° C | 38% | 919.1 hPa | - | - | - | - |
| 1777900528 | 18.89° C | 36% | 919.2 hPa | - | - | - | - |
| 1777899628 | 19.44° C | 38% | 919.3 hPa | - | - | - | - |
| 1777898772 | 18.89° C | 38% | 919.5 hPa | - | - | - | - |
| 1777898728 | 18.89° C | 38% | 919.5 hPa | - | - | - | - |
| 1777897827 | 18.89° C | 39% | 919.5 hPa | - | - | - | - |
| 1777896927 | 17.78° C | 46% | 919.7 hPa | - | - | - | - |
| 1777896027 | 18.33° C | 43% | 919.7 hPa | - | - | - | - |
* Rain since midnight (hover to see other rain measurements)
** Current wind speed in m/s (hover to see current wind gust speed)